SILO ALERT LOG
| Silo ID | Alert Type | Alert Message | Silo Type | Points | Depth (mm) | Strength | Temperature (°C) | Humidity (%) | Height (mm) | Volume (㎥) | Weight (t) | Flag | Time |
|---|---|---|---|---|---|---|---|---|---|---|---|---|---|
| WJWJR01 | Humidity | 습도센서 측정값이 80% 초과 | 평 | 77 | 7680 | 1110 | 23.3 | 90.1 | -40 | -4.524 | 0 | 0 | 2026-07-18 11:26:03.000 |
| WJWJR01 | Humidity | 습도센서 측정값이 80% 초과 | 평 | 77 | 7670 | 1082 | 23.4 | 90 | -30 | -3.393 | 0 | 0 | 2026-07-18 10:26:00.000 |
| WJWJR01 | Humidity | 습도센서 측정값이 80% 초과 | 평 | 77 | 7680 | 1080 | 23.5 | 89.8 | -40 | -4.524 | 0 | 0 | 2026-07-18 09:26:00.000 |
| WJWJR01 | Humidity | 습도센서 측정값이 80% 초과 | 평 | 77 | 7690 | 1089 | 23.8 | 89.6 | -50 | -5.655 | 0 | 0 | 2026-07-18 08:26:02.000 |
| WJWJR01 | Humidity | 습도센서 측정값이 80% 초과 | 평 | 77 | 7690 | 1106 | 24.3 | 89.5 | -50 | -5.655 | 0 | 0 | 2026-07-18 07:26:02.000 |
| WJWJR01 | Humidity | 습도센서 측정값이 80% 초과 | 평 | 84 | 7680 | 1080 | 24.6 | 89.3 | -40 | -4.524 | 0 | 0 | 2026-07-18 06:25:58.000 |
| WJWJR01 | Humidity | 습도센서 측정값이 80% 초과 | 평 | 76 | 7690 | 1074 | 24.9 | 88.9 | -50 | -5.655 | 0 | 0 | 2026-07-18 05:25:56.000 |
| WJWJR01 | Humidity | 습도센서 측정값이 80% 초과 | 평 | 77 | 7660 | 1084 | 25.2 | 88.3 | -20 | -2.262 | 0 | 0 | 2026-07-18 04:26:04.000 |
| WJWJR01 | Humidity | 습도센서 측정값이 80% 초과 | 평 | 77 | 7650 | 1112 | 25.5 | 87.6 | -10 | -1.131 | 0 | 0 | 2026-07-18 03:26:00.000 |
| WJWJR01 | Humidity | 습도센서 측정값이 80% 초과 | 평 | 77 | 7670 | 1105 | 25.8 | 86.8 | -30 | -3.393 | 0 | 0 | 2026-07-18 02:26:06.000 |
| WJWJR01 | Humidity | 습도센서 측정값이 80% 초과 | 평 | 76 | 7680 | 1072 | 26.3 | 85.6 | -40 | -4.524 | 0 | 0 | 2026-07-18 01:25:59.000 |
| WJWJR01 | Humidity | 습도센서 측정값이 80% 초과 | 평 | 76 | 7710 | 1088 | 26.7 | 84.2 | -70 | -7.917 | 0 | 0 | 2026-07-18 00:26:01.000 |
| WJWJR01 | Humidity | 습도센서 측정값이 80% 초과 | 평 | 83 | 7700 | 1064 | 27.1 | 82.7 | -60 | -6.786 | 0 | 0 | 2026-07-17 23:25:57.000 |
| WJWJR01 | Humidity | 습도센서 측정값이 80% 초과 | 평 | 82 | 7720 | 1078 | 27.7 | 80.6 | -80 | -9.048 | 0 | 0 | 2026-07-17 22:25:57.000 |
| WJWJR01 | Humidity | 습도센서 측정값이 80% 초과 | 평 | 75 | 7690 | 1078 | 29.1 | 81.8 | -50 | -5.655 | 0 | 0 | 2026-07-17 11:26:01.000 |
| WJWJR01 | Humidity | 습도센서 측정값이 80% 초과 | 평 | 74 | 7670 | 1067 | 27.4 | 87.6 | -30 | -3.393 | 0 | 0 | 2026-07-17 10:25:55.000 |
| WJWJR05 | Humidity | 습도센서 측정값이 80% 초과 | 평 | 55 | 7700 | 2713 | 27.9 | 81.3 | 19 | 2.262 | 1.43 | 0 | 2026-07-17 10:25:43.000 |
| WJWJR01 | Humidity | 습도센서 측정값이 80% 초과 | 평 | 77 | 7680 | 1079 | 25.9 | 91.1 | -40 | -4.524 | 0 | 0 | 2026-07-17 09:26:04.000 |
| WJWJR01 | Humidity | 습도센서 측정값이 80% 초과 | 평 | 76 | 7670 | 1060 | 24.7 | 89.1 | -30 | -3.393 | 0 | 0 | 2026-07-17 08:26:01.000 |
| WJWJR01 | Humidity | 습도센서 측정값이 80% 초과 | 평 | 75 | 7680 | 1091 | 24 | 88.7 | -40 | -4.524 | 0 | 0 | 2026-07-17 07:26:05.000 |
[첫 페이지] [28] [29] [30] [31] 32 [33] [34] [35] [36] [마지막 페이지]